createdAt,value
2019-05-03T00:01:21.815Z,8.40
2019-05-03T00:03:51.890Z,8.40
2019-05-03T00:06:22.636Z,8.40
2019-05-03T00:08:52.606Z,8.40
2019-05-03T00:11:23.049Z,8.40
2019-05-03T00:13:53.669Z,8.30
2019-05-03T00:16:32.552Z,8.30
2019-05-03T00:19:03.375Z,8.30
2019-05-03T00:21:33.232Z,8.30
2019-05-03T00:24:03.964Z,8.30
2019-05-03T00:26:34.102Z,8.20
2019-05-03T00:29:03.953Z,8.20
2019-05-03T00:31:33.788Z,8.20
2019-05-03T00:34:07.767Z,8.10
2019-05-03T00:36:52.483Z,8.10
2019-05-03T00:39:27.395Z,8.10
2019-05-03T00:41:57.326Z,8.10
2019-05-03T00:44:51.580Z,8.20
2019-05-03T00:47:22.260Z,8.10
2019-05-03T00:49:52.186Z,8.10
2019-05-03T00:52:22.812Z,8.10
2019-05-03T00:54:53.063Z,8.10
2019-05-03T00:57:22.899Z,8.10
2019-05-03T00:59:52.920Z,8.10
2019-05-03T01:02:22.824Z,8.10
2019-05-03T01:04:53.217Z,8.10
2019-05-03T01:07:23.202Z,8.10
2019-05-03T01:09:53.424Z,8.10
2019-05-03T01:12:23.251Z,8.10
2019-05-03T01:14:54.795Z,8.10
2019-05-03T01:17:24.732Z,8.10
2019-05-03T01:19:54.967Z,8.10
2019-05-03T01:22:24.975Z,8.10
2019-05-03T01:24:54.959Z,8.10
2019-05-03T01:27:33.770Z,8.10
2019-05-03T01:30:03.829Z,8.10
2019-05-03T01:32:33.628Z,8.10
2019-05-03T01:35:03.892Z,8.10
2019-05-03T01:37:33.706Z,8.10
2019-05-03T01:40:04.129Z,8.10
2019-05-03T01:42:34.223Z,8.10
2019-05-03T01:45:04.574Z,8.10
2019-05-03T01:47:45.014Z,8.10
2019-05-03T01:50:22.907Z,8.10
2019-05-03T01:52:53.819Z,8.10
2019-05-03T01:55:25.757Z,8.10
2019-05-03T01:57:55.922Z,8.10
2019-05-03T02:00:27.294Z,8.10
2019-05-03T02:03:08.812Z,8.10
2019-05-03T02:05:47.558Z,8.10
2019-05-03T02:08:17.912Z,8.10
2019-05-03T02:10:47.794Z,8.10
2019-05-03T02:13:17.807Z,8.10
2019-05-03T02:15:48.071Z,8.10
2019-05-03T02:18:17.890Z,8.10
2019-05-03T02:20:47.776Z,8.10
2019-05-03T02:23:17.600Z,8.10
2019-05-03T02:25:55.951Z,8.10
2019-05-03T02:28:19.368Z,8.00
2019-05-03T02:30:49.164Z,8.00
2019-05-03T02:33:19.204Z,8.10
2019-05-03T02:35:49.084Z,8.00
2019-05-03T02:38:18.862Z,8.00
2019-05-03T02:40:48.908Z,8.10
2019-05-03T02:43:26.127Z,8.10
2019-05-03T02:46:16.635Z,8.10
2019-05-03T02:48:58.582Z,8.20
2019-05-03T02:51:29.314Z,8.20
2019-05-03T02:53:59.137Z,8.20
2019-05-03T02:56:29.296Z,8.20
2019-05-03T02:58:59.743Z,8.10
2019-05-03T03:01:30.183Z,8.20
2019-05-03T03:04:01.391Z,8.20
2019-05-03T03:06:33.016Z,8.20
2019-05-03T03:09:06.251Z,8.20
2019-05-03T03:11:38.815Z,8.20
2019-05-03T03:14:12.015Z,8.20
2019-05-03T03:16:45.482Z,8.20
2019-05-03T03:19:17.099Z,8.20
2019-05-03T03:21:49.124Z,8.20
2019-05-03T03:24:21.032Z,8.30
2019-05-03T03:26:52.163Z,8.30
2019-05-03T03:29:25.621Z,8.30
2019-05-03T03:32:19.429Z,8.30
2019-05-03T03:35:06.126Z,8.30
2019-05-03T03:37:35.265Z,8.30
2019-05-03T03:40:06.179Z,8.30
2019-05-03T03:42:38.231Z,8.30
2019-05-03T03:45:09.143Z,8.30
2019-05-03T03:47:39.960Z,8.30
2019-05-03T03:50:11.602Z,8.20
2019-05-03T03:52:45.109Z,8.20
2019-05-03T03:55:15.984Z,8.20
2019-05-03T03:57:46.962Z,8.20
2019-05-03T04:00:18.513Z,8.20
2019-05-03T04:02:48.752Z,8.30
2019-05-03T04:05:18.599Z,8.30
2019-05-03T04:07:48.867Z,8.30
2019-05-03T04:10:19.167Z,8.30
2019-05-03T04:12:49.693Z,8.20
2019-05-03T04:15:37.377Z,8.20
2019-05-03T04:18:18.667Z,8.20
2019-05-03T04:20:49.106Z,8.30
2019-05-03T04:23:20.711Z,8.30
2019-05-03T04:25:51.903Z,8.20
2019-05-03T04:28:22.340Z,8.20
2019-05-03T04:30:52.167Z,8.20
2019-05-03T04:33:21.958Z,8.30
2019-05-03T04:35:51.947Z,8.30
2019-05-03T04:38:21.682Z,8.20
2019-05-03T04:40:52.330Z,8.20
2019-05-03T04:43:22.104Z,8.30
2019-05-03T04:46:09.443Z,8.30
2019-05-03T04:48:39.560Z,8.30
2019-05-03T04:51:10.781Z,8.20
2019-05-03T04:53:45.441Z,8.20
2019-05-03T04:56:16.856Z,8.20
2019-05-03T04:58:47.275Z,8.20
2019-05-03T05:01:17.912Z,8.30
2019-05-03T05:03:48.210Z,8.30
2019-05-03T05:06:18.620Z,8.30
2019-05-03T05:08:48.893Z,8.30
2019-05-03T05:11:19.499Z,8.30
2019-05-03T05:13:50.619Z,8.30
2019-05-03T05:16:20.407Z,8.30
2019-05-03T05:18:56.023Z,8.30
2019-05-03T05:21:36.083Z,8.20
2019-05-03T05:24:06.647Z,8.30
2019-05-03T05:26:55.293Z,8.20
2019-05-03T05:29:27.435Z,8.30
2019-05-03T05:31:57.487Z,8.30
2019-05-03T05:34:27.358Z,8.30
2019-05-03T05:36:57.153Z,8.40
2019-05-03T05:39:28.095Z,8.40
2019-05-03T05:41:58.216Z,8.40
2019-05-03T05:44:28.242Z,8.40
2019-05-03T05:47:15.519Z,8.60
2019-05-03T05:50:07.068Z,8.50
2019-05-03T05:52:36.937Z,8.50
2019-05-03T05:55:32.119Z,8.60
2019-05-03T05:58:10.172Z,8.50
2019-05-03T06:00:46.286Z,8.60
2019-05-03T06:03:16.354Z,8.50
2019-05-03T06:05:46.134Z,8.50
2019-05-03T06:08:39.307Z,8.50
2019-05-03T06:11:21.002Z,8.60
2019-05-03T06:14:15.708Z,8.60
2019-05-03T06:16:52.959Z,8.60
2019-05-03T06:19:41.963Z,8.60
2019-05-03T06:22:22.599Z,8.70
2019-05-03T06:24:59.859Z,8.70
2019-05-03T06:27:36.544Z,8.60
2019-05-03T06:30:26.312Z,8.70
2019-05-03T06:32:56.175Z,8.60
2019-05-03T06:35:25.986Z,8.60
2019-05-03T06:37:55.816Z,8.60
2019-05-03T06:40:26.250Z,8.60
2019-05-03T06:43:08.471Z,8.60
2019-05-03T06:45:27.903Z,8.60
2019-05-03T06:47:58.110Z,8.70
2019-05-03T06:50:29.041Z,8.70
2019-05-03T06:53:04.345Z,8.70
2019-05-03T06:55:31.248Z,8.70
2019-05-03T06:58:01.463Z,8.80
2019-05-03T07:00:50.114Z,8.90
2019-05-03T07:03:28.881Z,8.90
2019-05-03T07:06:17.896Z,9.00
2019-05-03T07:09:05.214Z,9.10
2019-05-03T07:11:34.897Z,9.20
2019-05-03T07:14:05.241Z,9.30
2019-05-03T07:16:35.471Z,9.30
2019-05-03T07:19:05.294Z,9.40
2019-05-03T07:21:35.507Z,9.40
2019-05-03T07:24:05.592Z,9.40
2019-05-03T07:26:35.424Z,9.40
2019-05-03T07:29:05.638Z,9.40
2019-05-03T07:31:36.667Z,9.40
2019-05-03T07:34:06.532Z,9.40
2019-05-03T07:36:36.676Z,9.30
2019-05-03T07:39:08.859Z,9.20
2019-05-03T07:41:39.306Z,9.20
2019-05-03T07:44:09.351Z,9.10
2019-05-03T07:46:39.211Z,9.10
2019-05-03T07:49:09.006Z,8.90
2019-05-03T07:51:38.798Z,8.90
2019-05-03T07:54:08.779Z,8.90
2019-05-03T07:56:46.310Z,8.90
2019-05-03T07:59:16.711Z,8.70
2019-05-03T08:01:49.989Z,8.60
2019-05-03T08:04:20.051Z,8.60
2019-05-03T08:06:49.980Z,8.60
2019-05-03T08:09:19.827Z,8.60
2019-05-03T08:11:49.700Z,8.70
2019-05-03T08:14:19.941Z,8.80
2019-05-03T08:16:50.066Z,8.90
2019-05-03T08:19:23.326Z,8.90
2019-05-03T08:21:51.399Z,8.90
2019-05-03T08:24:22.120Z,8.90
2019-05-03T08:26:51.922Z,9.00
2019-05-03T08:29:22.131Z,9.00
2019-05-03T08:32:24.565Z,9.00
2019-05-03T08:35:15.097Z,9.20
2019-05-03T08:37:54.642Z,9.40
2019-05-03T08:40:25.962Z,9.70
2019-05-03T08:42:55.963Z,9.90
2019-05-03T08:45:26.562Z,10.10
2019-05-03T08:47:57.299Z,10.20
2019-05-03T08:50:27.114Z,10.50
2019-05-03T08:52:57.578Z,10.60
2019-05-03T08:55:27.758Z,10.60
2019-05-03T08:57:57.999Z,10.60
2019-05-03T09:00:29.488Z,10.60
2019-05-03T09:02:59.553Z,10.60
2019-05-03T09:05:29.331Z,10.40
2019-05-03T09:08:00.337Z,10.40
2019-05-03T09:10:43.058Z,10.30
2019-05-03T09:13:18.880Z,10.20
2019-05-03T09:15:50.046Z,10.20
2019-05-03T09:18:19.891Z,10.20
2019-05-03T09:20:51.674Z,10.00
2019-05-03T09:23:23.397Z,9.90
2019-05-03T09:25:54.795Z,9.80
2019-05-03T09:28:26.510Z,9.70
2019-05-03T09:30:56.161Z,9.70
2019-05-03T09:33:26.876Z,9.60
2019-05-03T09:35:57.114Z,9.60
2019-05-03T09:38:26.979Z,9.50
2019-05-03T09:40:56.785Z,9.50
2019-05-03T09:43:27.150Z,9.60
2019-05-03T09:45:57.254Z,9.70
2019-05-03T09:48:27.491Z,9.70
2019-05-03T09:50:57.278Z,9.60
2019-05-03T09:53:30.158Z,9.50
2019-05-03T09:56:00.382Z,9.30
2019-05-03T09:58:30.271Z,9.10
2019-05-03T10:01:00.738Z,9.00
2019-05-03T10:03:31.366Z,9.00
2019-05-03T10:06:01.139Z,8.90
2019-05-03T10:08:31.825Z,8.90
2019-05-03T10:11:10.924Z,8.80
2019-05-03T10:13:42.041Z,8.90
2019-05-03T10:16:12.002Z,8.90
2019-05-03T10:18:42.095Z,8.90
2019-05-03T10:21:11.979Z,8.90
2019-05-03T10:23:42.491Z,9.00
2019-05-03T10:26:14.676Z,9.10
2019-05-03T10:28:45.108Z,9.10
2019-05-03T10:31:15.836Z,9.20
2019-05-03T10:33:50.512Z,9.20
2019-05-03T10:36:20.260Z,9.20
2019-05-03T10:38:50.121Z,9.20
2019-05-03T10:41:20.745Z,9.30
2019-05-03T10:43:51.544Z,9.30
2019-05-03T10:46:21.558Z,9.20
2019-05-03T10:48:51.330Z,9.20
2019-05-03T10:51:22.285Z,9.20
2019-05-03T10:53:57.466Z,9.20
2019-05-03T10:56:55.891Z,9.30
2019-05-03T10:59:26.704Z,9.30
2019-05-03T11:02:15.680Z,9.20
2019-05-03T11:04:46.329Z,9.30
2019-05-03T11:07:16.100Z,9.40
2019-05-03T11:09:49.738Z,9.50
2019-05-03T11:12:18.259Z,9.50
2019-05-03T11:14:49.205Z,9.70
2019-05-03T11:17:19.470Z,10.00
2019-05-03T11:19:49.614Z,10.20
2019-05-03T11:22:20.294Z,10.30
2019-05-03T11:24:50.418Z,10.30
2019-05-03T11:27:25.771Z,10.30
2019-05-03T11:29:55.706Z,10.30
2019-05-03T11:32:55.477Z,10.30
2019-05-03T11:35:35.119Z,10.30
2019-05-03T11:38:11.788Z,10.40
2019-05-03T11:40:41.631Z,10.40
2019-05-03T11:43:11.478Z,10.50
2019-05-03T11:45:47.596Z,10.50
2019-05-03T11:48:18.311Z,10.60
2019-05-03T11:50:48.642Z,10.70
2019-05-03T11:53:18.783Z,10.80
2019-05-03T11:55:48.666Z,10.80
2019-05-03T11:58:21.270Z,10.90
2019-05-03T12:01:14.979Z,10.90
2019-05-03T12:03:39.615Z,11.00
2019-05-03T12:06:09.823Z,11.00
2019-05-03T12:08:40.152Z,10.90
2019-05-03T12:11:10.708Z,10.70
2019-05-03T12:13:40.814Z,10.50
2019-05-03T12:16:17.362Z,10.30
2019-05-03T12:18:50.084Z,10.10
2019-05-03T12:21:18.069Z,10.00
2019-05-03T12:23:48.048Z,9.90
2019-05-03T12:26:19.476Z,9.80
2019-05-03T12:28:50.119Z,9.60
2019-05-03T12:31:33.505Z,9.40
2019-05-03T12:33:52.048Z,9.20
2019-05-03T12:36:21.871Z,9.00
2019-05-03T12:38:54.827Z,8.90
2019-05-03T12:41:25.516Z,8.90
2019-05-03T12:43:56.053Z,8.80
2019-05-03T12:46:26.546Z,8.80
2019-05-03T12:48:56.666Z,8.70
2019-05-03T12:51:26.511Z,8.70
2019-05-03T12:53:56.284Z,8.70
2019-05-03T12:56:32.777Z,8.70
2019-05-03T12:59:05.740Z,8.60
2019-05-03T13:01:57.982Z,8.60
2019-05-03T13:04:37.891Z,8.60
2019-05-03T13:07:14.833Z,8.60
2019-05-03T13:09:45.350Z,8.80
2019-05-03T13:12:17.710Z,8.90
2019-05-03T13:14:48.253Z,8.90
2019-05-03T13:17:35.916Z,9.00
2019-05-03T13:20:12.356Z,9.10
2019-05-03T13:22:42.713Z,9.20
2019-05-03T13:25:15.551Z,9.30
2019-05-03T13:27:46.256Z,9.40
2019-05-03T13:30:18.720Z,9.50
2019-05-03T13:32:48.537Z,9.60
2019-05-03T13:35:19.337Z,9.60
2019-05-03T13:37:49.084Z,9.70
2019-05-03T13:40:19.767Z,9.80
2019-05-03T13:42:57.725Z,9.90
2019-05-03T13:45:24.604Z,10.00
2019-05-03T13:47:55.280Z,10.10
2019-05-03T13:50:25.217Z,10.20
2019-05-03T13:52:55.936Z,10.20
2019-05-03T13:55:26.077Z,10.10
2019-05-03T13:57:55.826Z,10.00
2019-05-03T14:00:25.954Z,10.00
2019-05-03T14:02:56.471Z,10.00
2019-05-03T14:05:26.819Z,9.90
2019-05-03T14:07:56.605Z,9.90
2019-05-03T14:10:27.154Z,9.90
2019-05-03T14:12:57.218Z,9.90
2019-05-03T14:15:27.041Z,9.90
2019-05-03T14:17:57.357Z,9.90
2019-05-03T14:20:44.616Z,9.80
2019-05-03T14:23:15.355Z,9.80
2019-05-03T14:25:46.205Z,9.80
2019-05-03T14:28:16.454Z,9.80
2019-05-03T14:30:46.790Z,9.80
2019-05-03T14:33:16.683Z,9.80
2019-05-03T14:35:47.278Z,9.80
2019-05-03T14:38:17.606Z,9.80
2019-05-03T14:40:48.059Z,9.80
2019-05-03T14:43:18.391Z,9.90
2019-05-03T14:45:48.962Z,9.90
2019-05-03T14:48:19.967Z,10.00
2019-05-03T14:50:49.786Z,10.10
2019-05-03T14:53:20.317Z,10.30
2019-05-03T14:55:56.267Z,10.30
2019-05-03T14:58:45.551Z,10.20
2019-05-03T15:01:34.721Z,10.10
2019-05-03T15:04:05.879Z,10.00
2019-05-03T15:06:36.122Z,10.00
2019-05-03T15:09:08.068Z,9.80
2019-05-03T15:11:37.963Z,9.80
2019-05-03T15:14:07.698Z,9.70
2019-05-03T15:16:37.673Z,9.70
2019-05-03T15:19:07.731Z,9.70
2019-05-03T15:21:37.629Z,9.70
2019-05-03T15:24:07.810Z,9.60
2019-05-03T15:26:37.686Z,9.60
2019-05-03T15:29:08.490Z,9.60
2019-05-03T15:31:38.692Z,9.60
2019-05-03T15:34:08.433Z,9.60
2019-05-03T15:36:38.590Z,9.60
2019-05-03T15:39:09.618Z,9.70
2019-05-03T15:41:39.862Z,9.70
2019-05-03T15:44:37.622Z,9.80
2019-05-03T15:47:15.386Z,9.90
2019-05-03T15:49:45.197Z,10.00
2019-05-03T15:52:15.278Z,10.00
2019-05-03T15:54:45.161Z,10.10
2019-05-03T15:57:15.736Z,10.10
2019-05-03T15:59:45.671Z,10.10
2019-05-03T16:02:15.611Z,10.10
2019-05-03T16:04:48.668Z,10.20
2019-05-03T16:07:18.858Z,10.10
2019-05-03T16:09:48.827Z,10.20
2019-05-03T16:12:19.367Z,10.20
2019-05-03T16:14:49.221Z,10.10
2019-05-03T16:17:19.058Z,10.10
2019-05-03T16:19:48.830Z,10.20
2019-05-03T16:22:19.028Z,10.10
2019-05-03T16:24:50.404Z,10.10
2019-05-03T16:27:42.442Z,10.10
2019-05-03T16:30:30.226Z,10.00
2019-05-03T16:33:00.391Z,10.00
2019-05-03T16:35:30.282Z,10.00
2019-05-03T16:38:00.070Z,9.90
2019-05-03T16:40:30.214Z,9.90
2019-05-03T16:43:00.742Z,9.90
2019-05-03T16:45:30.960Z,9.90
2019-05-03T16:48:01.233Z,9.90
2019-05-03T16:50:31.375Z,9.90
2019-05-03T16:53:01.305Z,9.90
2019-05-03T16:55:31.418Z,9.90
2019-05-03T16:58:01.584Z,9.90
2019-05-03T17:00:32.264Z,9.90
2019-05-03T17:03:02.202Z,9.90
2019-05-03T17:05:50.539Z,9.80
2019-05-03T17:08:28.612Z,9.80
2019-05-03T17:11:00.291Z,9.70
2019-05-03T17:13:30.100Z,9.70
2019-05-03T17:16:00.047Z,9.80
2019-05-03T17:18:30.287Z,9.80
2019-05-03T17:21:00.999Z,9.80
2019-05-03T17:23:30.784Z,9.80
2019-05-03T17:26:00.720Z,9.80
2019-05-03T17:28:30.615Z,9.80
2019-05-03T17:31:00.539Z,9.70
2019-05-03T17:33:31.090Z,9.80
2019-05-03T17:36:01.180Z,9.80
2019-05-03T17:38:44.279Z,9.70
2019-05-03T17:41:25.558Z,9.70
2019-05-03T17:44:00.063Z,9.80
2019-05-03T17:46:29.822Z,9.80
2019-05-03T17:48:59.851Z,9.80
2019-05-03T17:51:57.618Z,9.80
2019-05-03T17:54:54.215Z,9.70
2019-05-03T17:57:29.095Z,9.60
2019-05-03T18:00:08.010Z,9.60
2019-05-03T18:02:45.120Z,9.60
2019-05-03T18:05:34.362Z,9.60
2019-05-03T18:08:41.164Z,9.60
2019-05-03T18:11:17.598Z,9.60
2019-05-03T18:13:47.638Z,9.50
2019-05-03T18:16:17.407Z,9.60
2019-05-03T18:18:47.508Z,9.50
2019-05-03T18:21:17.340Z,9.50
2019-05-03T18:23:47.262Z,9.50
2019-05-03T18:26:17.429Z,9.50
2019-05-03T18:28:47.672Z,9.50
2019-05-03T18:31:17.930Z,9.60
2019-05-03T18:33:48.128Z,9.50
2019-05-03T18:36:18.438Z,9.50
2019-05-03T18:38:48.283Z,9.50
2019-05-03T18:41:18.513Z,9.50
2019-05-03T18:44:00.372Z,9.50
2019-05-03T18:46:33.814Z,9.40
2019-05-03T18:49:05.157Z,9.40
2019-05-03T18:51:36.038Z,9.40
2019-05-03T18:54:07.318Z,9.30
2019-05-03T18:56:37.759Z,9.30
2019-05-03T18:59:07.821Z,9.30
2019-05-03T19:01:38.014Z,9.30
2019-05-03T19:04:15.691Z,9.20
2019-05-03T19:06:45.520Z,9.20
2019-05-03T19:09:37.238Z,9.20
2019-05-03T19:12:26.417Z,9.20
2019-05-03T19:14:58.066Z,9.10
2019-05-03T19:17:54.729Z,9.10
2019-05-03T19:20:26.942Z,9.10
2019-05-03T19:22:59.075Z,9.10
2019-05-03T19:25:43.341Z,9.00
2019-05-03T19:28:07.856Z,9.00
2019-05-03T19:30:38.415Z,9.00
2019-05-03T19:33:09.903Z,9.00
2019-05-03T19:35:44.427Z,9.10
2019-05-03T19:38:16.662Z,9.10
2019-05-03T19:40:48.308Z,9.10
2019-05-03T19:43:19.562Z,9.10
2019-05-03T19:45:50.739Z,9.00
2019-05-03T19:48:25.577Z,9.00
2019-05-03T19:50:57.940Z,9.00
2019-05-03T19:53:48.833Z,9.00
2019-05-03T19:56:22.943Z,9.00
2019-05-03T19:58:57.493Z,9.00
2019-05-03T20:01:40.368Z,9.00
2019-05-03T20:04:43.391Z,9.00
2019-05-03T20:07:41.595Z,9.00
2019-05-03T20:10:11.821Z,9.00
2019-05-03T20:12:43.213Z,9.10
2019-05-03T20:15:14.503Z,9.10
2019-05-03T20:17:57.509Z,9.20
2019-05-03T20:20:21.862Z,9.10
2019-05-03T20:22:54.916Z,9.10
2019-05-03T20:25:25.959Z,9.10
2019-05-03T20:27:56.630Z,9.10
2019-05-03T20:30:27.307Z,9.10
2019-05-03T20:32:58.194Z,9.10
2019-05-03T20:35:29.070Z,9.10
2019-05-03T20:37:59.789Z,9.10
2019-05-03T20:40:30.790Z,9.10
2019-05-03T20:43:08.490Z,9.10
2019-05-03T20:46:10.675Z,9.20
2019-05-03T20:48:44.754Z,9.10
2019-05-03T20:51:15.523Z,9.20
2019-05-03T20:53:46.736Z,9.20
2019-05-03T20:56:16.848Z,9.20
2019-05-03T20:58:47.330Z,9.20
2019-05-03T21:01:17.614Z,9.20
2019-05-03T21:03:49.460Z,9.20
2019-05-03T21:06:32.454Z,9.20
2019-05-03T21:08:56.161Z,9.10
2019-05-03T21:11:25.493Z,9.10
2019-05-03T21:14:01.318Z,9.20
2019-05-03T21:16:54.542Z,9.20
2019-05-03T21:19:44.680Z,9.20
2019-05-03T21:22:20.627Z,9.20
2019-05-03T21:25:24.973Z,9.20
2019-05-03T21:27:55.613Z,9.20
2019-05-03T21:30:26.231Z,9.20
2019-05-03T21:32:56.053Z,9.20
2019-05-03T21:35:38.680Z,9.10
2019-05-03T21:37:57.558Z,9.00
2019-05-03T21:40:27.430Z,9.00
2019-05-03T21:42:57.245Z,8.90
2019-05-03T21:45:33.010Z,8.90
2019-05-03T21:48:16.788Z,8.80
2019-05-03T21:50:47.060Z,8.70
2019-05-03T21:53:17.915Z,8.60
2019-05-03T21:55:48.374Z,8.60
2019-05-03T21:58:18.634Z,8.60
2019-05-03T22:01:05.108Z,8.50
2019-05-03T22:03:35.527Z,8.50
2019-05-03T22:06:05.670Z,8.50
2019-05-03T22:08:36.571Z,8.50
2019-05-03T22:11:06.369Z,8.50
2019-05-03T22:13:36.960Z,8.50
2019-05-03T22:16:17.254Z,8.60
2019-05-03T22:18:47.022Z,8.50
2019-05-03T22:21:23.854Z,8.50
2019-05-03T22:24:15.651Z,8.40
2019-05-03T22:26:51.835Z,8.30
2019-05-03T22:29:21.611Z,8.20
2019-05-03T22:31:51.924Z,8.10
2019-05-03T22:34:21.739Z,8.00
2019-05-03T22:36:51.970Z,7.90
2019-05-03T22:39:22.210Z,7.80
2019-05-03T22:41:52.454Z,7.80
2019-05-03T22:44:22.400Z,7.70
2019-05-03T22:46:52.442Z,7.60
2019-05-03T22:49:22.523Z,7.50
2019-05-03T22:51:54.348Z,7.40
2019-05-03T22:54:24.694Z,7.40
2019-05-03T22:56:55.460Z,7.30
2019-05-03T22:59:26.593Z,7.30
2019-05-03T23:01:56.541Z,7.30
2019-05-03T23:04:26.784Z,7.40
2019-05-03T23:06:56.619Z,7.40
2019-05-03T23:09:27.206Z,7.40
2019-05-03T23:11:57.383Z,7.40
2019-05-03T23:14:27.638Z,7.30
2019-05-03T23:16:57.799Z,7.30
2019-05-03T23:19:27.599Z,7.20
2019-05-03T23:22:06.160Z,7.10
2019-05-03T23:24:35.993Z,7.00
2019-05-03T23:27:06.189Z,6.90
2019-05-03T23:29:36.001Z,6.80
2019-05-03T23:32:05.949Z,6.80
2019-05-03T23:34:35.755Z,6.70
2019-05-03T23:37:05.693Z,6.70
2019-05-03T23:39:35.510Z,6.60
2019-05-03T23:42:06.158Z,6.60
2019-05-03T23:44:36.462Z,6.60
2019-05-03T23:47:15.510Z,6.50
2019-05-03T23:49:45.344Z,6.50
2019-05-03T23:52:48.954Z,6.40
2019-05-03T23:55:30.690Z,6.40
2019-05-03T23:58:00.569Z,6.30
